Time;durP1;ratioP1;P1;durP2;ratioP2;P2;SDS_P1;SDS_P2;PMS_P1;PMS_P2;Temp;Humidity;BMP_temperature;BMP_pressure;BME280_temperature;BME280_humidity;BME280_pressure;Samples;Min_cycle;Max_cycle;Signal;HPM_P1;HPM_P2
2021/07/26 00:00:01;;;;;;;13.00;10.23;;;17.30;99.90;;;;;;5028834;28;20041;-47
2021/07/26 00:02:33;;;;;;;10.73;9.55;;;17.30;99.90;;;;;;5030116;28;20052;-48
2021/07/26 00:05:00;;;;;;;11.43;9.20;;;17.30;99.90;;;;;;5026941;28;20053;-46
2021/07/26 00:07:28;;;;;;;13.27;10.00;;;17.30;99.90;;;;;;5026521;28;20563;-46
2021/07/26 00:10:03;;;;;;;14.35;10.77;;;17.20;99.90;;;;;;5029045;28;20772;-47
2021/07/26 00:12:35;;;;;;;12.20;11.00;;;17.20;99.90;;;;;;5029141;28;20076;-47
2021/07/26 00:15:05;;;;;;;;;;;17.20;99.90;;;;;;5034395;28;20129;-45
2021/07/26 00:17:33;;;;;;;14.15;10.55;;;17.20;99.90;;;;;;5027224;28;19940;-47
2021/07/26 00:20:03;;;;;;;10.68;9.25;;;17.20;99.90;;;;;;5029593;28;20111;-46
2021/07/26 00:22:35;;;;;;;12.35;10.25;;;17.20;99.90;;;;;;5027799;28;20045;-46
2021/07/26 00:25:05;;;;;;;17.77;10.85;;;17.20;99.90;;;;;;5029539;28;20049;-46
2021/07/26 00:27:36;;;;;;;11.68;10.40;;;17.20;99.90;;;;;;5029219;28;20077;-46
2021/07/26 00:30:06;;;;;;;15.48;10.95;;;17.20;99.90;;;;;;5029551;28;20076;-44
2021/07/26 00:32:39;;;;;;;12.43;11.00;;;17.20;99.90;;;;;;5029251;28;20056;-48
2021/07/26 00:35:12;;;;;;;12.98;11.43;;;17.20;99.90;;;;;;5029441;28;20061;-47
2021/07/26 00:37:42;;;;;;;13.35;11.80;;;17.20;99.90;;;;;;5030978;28;20056;-46
2021/07/26 00:40:12;;;;;;;14.05;12.55;;;17.20;99.90;;;;;;5029725;28;20072;-48
2021/07/26 00:42:40;;;;;;;13.57;12.18;;;17.10;99.90;;;;;;5029295;28;20049;-47
2021/07/26 00:45:09;;;;;;;12.40;10.13;;;17.10;99.90;;;;;;5029287;28;20433;-46
2021/07/26 00:47:41;;;;;;;13.23;11.15;;;17.10;99.90;;;;;;5027781;28;20706;-47
2021/07/26 00:50:11;;;;;;;11.80;10.43;;;17.10;99.90;;;;;;5029211;28;20114;-48
2021/07/26 00:52:43;;;;;;;16.38;11.90;;;17.10;99.90;;;;;;5028469;28;20045;-48
2021/07/26 00:55:09;;;;;;;15.45;11.40;;;17.10;99.90;;;;;;5023841;28;20556;-47
2021/07/26 00:57:41;;;;;;;12.60;10.85;;;17.10;99.90;;;;;;5026091;28;20049;-45
2021/07/26 01:00:10;;;;;;;12.70;11.32;;;17.10;99.90;;;;;;5028633;28;20140;-46
2021/07/26 01:02:39;;;;;;;16.17;11.57;;;17.10;99.90;;;;;;5029275;28;20076;-48
2021/07/26 01:05:10;;;;;;;13.13;11.70;;;17.10;99.90;;;;;;5028206;28;20053;-47
2021/07/26 01:07:39;;;;;;;13.60;11.18;;;17.00;99.90;;;;;;5027108;28;20042;-46
2021/07/26 01:10:06;;;;;;;12.02;10.07;;;17.00;99.90;;;;;;5028364;28;20099;-47
2021/07/26 01:12:35;;;;;;;13.85;11.57;;;17.00;99.90;;;;;;5026666;28;20053;-45
2021/07/26 01:15:04;;;;;;;13.05;11.75;;;17.00;99.90;;;;;;5027929;28;20049;-46
2021/07/26 01:18:02;;;;;;;14.35;10.68;;;17.00;99.90;;;;;;5026724;28;20070;-47
2021/07/26 01:20:31;;;;;;;12.40;11.10;;;17.00;99.90;;;;;;5022495;28;20055;-46
2021/07/26 01:23:03;;;;;;;;;;;17.00;99.90;;;;;;5024299;28;20206;-46
2021/07/26 01:25:35;;;;;;;13.85;11.90;;;17.00;99.90;;;;;;5024563;28;20381;-46
2021/07/26 01:28:04;;;;;;;15.57;12.25;;;16.90;99.90;;;;;;5004518;28;20118;-47
2021/07/26 01:30:36;;;;;;;13.73;11.85;;;16.90;99.90;;;;;;5023580;28;20160;-45
2021/07/26 01:33:02;;;;;;;;;;;16.90;99.90;;;;;;5024359;28;20045;-45
2021/07/26 01:35:29;;;;;;;13.63;11.95;;;16.80;99.90;;;;;;5024283;28;19957;-48
2021/07/26 01:37:58;;;;;;;13.75;11.25;;;16.80;99.90;;;;;;5021405;28;20837;-48
2021/07/26 01:40:29;;;;;;;12.63;11.43;;;16.80;99.90;;;;;;5024394;28;20608;-48
2021/07/26 01:43:03;;;;;;;13.73;12.27;;;16.80;99.90;;;;;;5021837;28;20183;-45
2021/07/26 01:45:33;;;;;;;15.25;12.88;;;16.80;99.90;;;;;;5021810;28;20493;-48
2021/07/26 01:48:08;;;;;;;15.93;12.27;;;16.80;99.90;;;;;;5011136;28;20054;-45
2021/07/26 01:51:00;;;;;;;15.82;13.93;;;16.70;99.90;;;;;;5018577;28;20076;-47
2021/07/26 01:53:30;;;;;;;16.15;13.95;;;16.70;99.90;;;;;;5009378;28;20069;-47
2021/07/26 01:56:00;;;;;;;15.77;13.80;;;16.70;99.90;;;;;;5023394;28;20514;-46
2021/07/26 01:58:29;;;;;;;17.08;13.70;;;16.70;99.90;;;;;;5021791;28;20121;-46
2021/07/26 02:00:58;;;;;;;16.33;14.40;;;16.70;99.90;;;;;;5024879;28;20591;-46
2021/07/26 02:03:29;;;;;;;18.02;14.60;;;16.70;99.90;;;;;;5027701;28;20059;-47
2021/07/26 02:05:58;;;;;;;18.00;14.43;;;16.60;99.90;;;;;;5026907;28;20203;-46
2021/07/26 02:08:26;;;;;;;16.60;14.50;;;16.60;99.90;;;;;;5026655;28;20038;-48
2021/07/26 02:10:57;;;;;;;14.60;12.77;;;16.60;99.90;;;;;;5025739;28;20532;-47
2021/07/26 02:13:24;;;;;;;17.00;13.55;;;16.50;99.90;;;;;;5033642;28;20041;-46
2021/07/26 02:15:50;;;;;;;16.33;14.60;;;16.50;99.90;;;;;;5026972;28;20097;-47
2021/07/26 02:18:18;;;;;;;19.05;16.02;;;16.50;99.90;;;;;;5026905;28;20052;-46
2021/07/26 02:20:45;;;;;;;18.77;15.95;;;16.50;99.90;;;;;;5023144;28;20136;-47
2021/07/26 02:23:14;;;;;;;18.50;15.95;;;16.50;99.90;;;;;;5025592;28;20445;-46
2021/07/26 02:25:45;;;;;;;21.63;17.50;;;16.40;99.90;;;;;;5028651;28;20788;-45
2021/07/26 02:28:11;;;;;;;19.05;17.00;;;16.50;99.90;;;;;;5023454;28;20045;-48
2021/07/26 02:30:40;;;;;;;22.33;18.15;;;16.50;99.90;;;;;;5027436;28;20087;-45
2021/07/26 02:33:07;;;;;;;20.30;17.83;;;16.40;99.90;;;;;;5028979;28;20041;-48
2021/07/26 02:35:36;;;;;;;20.77;16.95;;;16.40;99.90;;;;;;5026135;28;20058;-45
2021/07/26 02:38:02;;;;;;;19.10;17.23;;;16.40;99.90;;;;;;5037318;28;20056;-46
2021/07/26 02:40:28;;;;;;;19.85;15.98;;;16.40;99.90;;;;;;5024215;28;20046;-45
2021/07/26 02:42:57;;;;;;;16.92;15.13;;;16.30;99.90;;;;;;5024827;28;20053;-46
2021/07/26 02:45:26;;;;;;;17.75;15.77;;;16.30;99.90;;;;;;5021982;28;20050;-48
2021/07/26 02:47:53;;;;;;;17.75;14.20;;;16.30;99.90;;;;;;5040732;28;20080;-45
2021/07/26 02:50:20;;;;;;;18.13;15.82;;;16.20;99.90;;;;;;5031376;28;20053;-46
2021/07/26 02:52:49;;;;;;;15.10;13.50;;;16.20;99.90;;;;;;5024578;28;20049;-46
2021/07/26 02:55:16;;;;;;;17.33;14.75;;;16.10;99.90;;;;;;5026515;28;20053;-46
2021/07/26 02:57:43;;;;;;;16.20;14.15;;;16.10;99.90;;;;;;5026830;28;20566;-48
2021/07/26 03:00:10;;;;;;;20.67;17.55;;;16.10;99.90;;;;;;5026304;28;20056;-48
2021/07/26 03:02:39;;;;;;;17.08;15.27;;;16.10;99.90;;;;;;5026493;28;20398;-47
2021/07/26 03:05:12;;;;;;;16.25;14.57;;;16.00;99.90;;;;;;5039647;28;20493;-46
2021/07/26 03:07:42;;;;;;;19.70;14.93;;;16.00;99.90;;;;;;5025505;28;20057;-45
2021/07/26 03:10:13;;;;;;;14.32;12.82;;;16.00;99.90;;;;;;5026690;28;20107;-48
2021/07/26 03:12:43;;;;;;;;;;;16.00;99.90;;;;;;5023467;28;20493;-45
2021/07/26 03:15:15;;;;;;;13.50;12.13;;;16.00;99.90;;;;;;5025849;28;19944;-47
2021/07/26 03:17:44;;;;;;;;;;;15.90;99.90;;;;;;5026059;28;20053;-46
2021/07/26 03:20:13;;;;;;;13.07;11.40;;;15.90;99.90;;;;;;5026768;28;20333;-46
2021/07/26 03:22:58;;;;;;;10.82;9.82;;;15.90;99.90;;;;;;5023650;28;20065;-50
2021/07/26 03:25:25;;;;;;;11.98;10.82;;;15.90;99.90;;;;;;5025541;28;20054;-46
2021/07/26 03:27:52;;;;;;;12.75;10.77;;;15.80;99.90;;;;;;5023789;28;20611;-46
2021/07/26 03:30:20;;;;;;;9.48;7.90;;;15.80;99.90;;;;;;5025120;28;20132;-46
2021/07/26 03:32:46;;;;;;;11.18;9.50;;;15.80;99.90;;;;;;5025268;28;20524;-46
2021/07/26 03:35:19;;;;;;;9.80;9.00;;;15.80;99.90;;;;;;5026103;28;20052;-45
2021/07/26 03:37:46;;;;;;;10.05;9.05;;;15.80;99.90;;;;;;5024776;28;20556;-47
2021/07/26 03:40:15;;;;;;;10.50;9.20;;;15.70;99.90;;;;;;5026197;28;20072;-47
2021/07/26 03:42:45;;;;;;;9.93;8.93;;;15.70;99.90;;;;;;5025179;28;20045;-45
2021/07/26 03:45:14;;;;;;;11.70;10.60;;;15.70;99.90;;;;;;5026407;28;20236;-47
2021/07/26 03:47:41;;;;;;;10.00;9.15;;;15.70;99.90;;;;;;5024297;28;20097;-45
2021/07/26 03:50:13;;;;;;;13.38;11.75;;;15.60;99.90;;;;;;5021134;28;20046;-49
2021/07/26 03:52:50;;;;;;;10.75;9.73;;;15.60;99.90;;;;;;5023828;28;20053;-46
2021/07/26 03:55:37;;;;;;;11.82;10.18;;;15.70;99.90;;;;;;5025452;28;20057;-47
2021/07/26 03:58:04;;;;;;;12.65;11.45;;;15.60;99.90;;;;;;5028427;28;20195;-46
2021/07/26 04:00:38;;;;;;;11.75;10.73;;;15.60;99.90;;;;;;5030863;28;20041;-46
2021/07/26 04:03:25;;;;;;;11.65;9.80;;;15.60;99.90;;;;;;5029807;28;20057;-45
2021/07/26 04:08:33;;;;;;;11.48;10.48;;;15.70;99.90;;;;;;5028873;28;20103;-44
2021/07/26 04:13:33;;;;;;;11.75;10.55;;;15.70;99.90;;;;;;5029092;28;20552;-45
2021/07/26 04:16:03;;;;;;;12.70;11.60;;;15.80;99.90;;;;;;5026383;28;20076;-47
2021/07/26 04:18:32;;;;;;;13.75;12.27;;;15.80;99.90;;;;;;5031706;28;20099;-46
2021/07/26 04:21:00;;;;;;;13.70;12.25;;;15.80;99.90;;;;;;5027457;28;20049;-45
2021/07/26 04:23:33;;;;;;;14.25;12.95;;;15.80;99.90;;;;;;5028537;28;20083;-46
2021/07/26 04:26:02;;;;;;;18.05;15.23;;;15.90;99.90;;;;;;5027365;28;20099;-46
2021/07/26 04:28:50;;;;;;;18.50;16.58;;;15.90;99.90;;;;;;5029322;28;20049;-47
2021/07/26 04:31:19;;;;;;;18.92;16.02;;;15.90;99.90;;;;;;5027944;28;20049;-46
2021/07/26 04:33:48;;;;;;;20.52;18.42;;;16.00;99.90;;;;;;5030899;28;20056;-48
2021/07/26 04:36:17;;;;;;;21.42;19.33;;;16.00;99.90;;;;;;5027652;28;20183;-44
2021/07/26 04:38:48;;;;;;;21.92;19.63;;;16.10;99.90;;;;;;5028316;28;20147;-45
2021/07/26 04:41:18;;;;;;;22.45;20.23;;;16.10;99.90;;;;;;5026899;28;20048;-46
2021/07/26 04:43:48;;;;;;;21.48;19.25;;;16.20;99.90;;;;;;5027936;28;20046;-46
2021/07/26 04:46:28;;;;;;;26.50;23.70;;;16.20;99.90;;;;;;5026287;28;20049;-45
2021/07/26 04:49:07;;;;;;;24.80;22.30;;;16.30;99.90;;;;;;5025808;28;20509;-43
2021/07/26 04:51:40;;;;;;;25.73;23.15;;;16.30;99.90;;;;;;5026039;28;20065;-45
2021/07/26 04:54:10;;;;;;;25.75;23.20;;;16.40;99.90;;;;;;5034449;28;20042;-44
2021/07/26 04:56:39;;;;;;;26.67;24.17;;;16.50;99.90;;;;;;5027229;28;20137;-45
2021/07/26 04:59:17;;;;;;;29.23;26.52;;;16.50;99.90;;;;;;5042334;28;20072;-44
2021/07/26 05:01:48;;;;;;;31.23;27.20;;;16.60;99.90;;;;;;5027412;28;20058;-45
2021/07/26 05:04:14;;;;;;;32.05;28.35;;;16.70;99.90;;;;;;5031535;28;20041;-45
2021/07/26 05:06:45;;;;;;;33.50;30.20;;;16.70;99.90;;;;;;5024343;28;20850;-44
2021/07/26 05:09:12;;;;;;;29.95;27.23;;;16.80;99.90;;;;;;5031397;28;20076;-44
2021/07/26 05:11:40;;;;;;;28.25;25.45;;;16.90;99.90;;;;;;5026180;28;20183;-44
2021/07/26 05:14:07;;;;;;;32.72;28.42;;;16.90;99.90;;;;;;5030482;28;20049;-44
2021/07/26 05:16:36;;;;;;;30.27;27.27;;;16.90;99.90;;;;;;5028156;28;20157;-44
2021/07/26 05:19:02;;;;;;;23.75;21.63;;;17.00;99.90;;;;;;5032177;28;20042;-45
2021/07/26 05:21:28;;;;;;;25.42;22.88;;;17.10;99.90;;;;;;5028777;28;20537;-46
2021/07/26 05:24:00;;;;;;;29.25;26.40;;;17.20;99.90;;;;;;5028860;28;20080;-46
2021/07/26 05:26:28;;;;;;;25.02;22.52;;;17.20;99.90;;;;;;5026988;28;20081;-44
2021/07/26 05:28:57;;;;;;;27.08;24.48;;;17.30;99.90;;;;;;5023756;28;20124;-47
2021/07/26 05:31:26;;;;;;;26.35;23.75;;;17.40;99.90;;;;;;5027549;28;20179;-44
2021/07/26 05:33:57;;;;;;;24.38;22.23;;;17.50;99.90;;;;;;5027117;28;20045;-44
2021/07/26 05:36:26;;;;;;;28.42;25.42;;;17.60;99.90;;;;;;5027728;28;20076;-47
2021/07/26 05:38:52;;;;;;;21.73;19.70;;;17.70;99.90;;;;;;5027610;28;20417;-46
2021/07/26 05:41:19;;;;;;;28.10;25.48;;;17.80;99.90;;;;;;5031498;28;20045;-46
2021/07/26 05:43:46;;;;;;;31.83;28.77;;;17.80;99.90;;;;;;5027513;28;20045;-46
2021/07/26 05:46:12;;;;;;;32.45;29.42;;;17.80;99.90;;;;;;5032777;28;20041;-45
2021/07/26 05:48:38;;;;;;;29.02;26.27;;;17.90;99.90;;;;;;5028159;28;20136;-44
2021/07/26 05:51:04;;;;;;;32.03;29.02;;;18.00;99.90;;;;;;5024868;28;20107;-44
2021/07/26 05:53:33;;;;;;;30.60;27.88;;;18.10;99.90;;;;;;5027757;28;20111;-46
2021/07/26 05:56:11;;;;;;;29.23;26.38;;;18.30;99.90;;;;;;5026849;28;20054;-44
2021/07/26 05:58:49;;;;;;;26.38;24.17;;;18.50;99.90;;;;;;5024903;28;20832;-43
2021/07/26 06:03:47;;;;;;;23.33;21.20;;;19.10;99.90;;;;;;5025317;28;20157;-47
2021/07/26 06:06:16;;;;;;;21.70;19.55;;;19.30;99.90;;;;;;5028891;28;20383;-44
2021/07/26 06:08:44;;;;;;;20.13;18.25;;;19.40;99.90;;;;;;5043533;28;20071;-46
2021/07/26 06:11:14;;;;;;;21.73;19.70;;;19.50;99.90;;;;;;5025724;28;20107;-46
2021/07/26 06:13:40;;;;;;;21.10;19.15;;;19.60;99.90;;;;;;5026998;28;20041;-49
2021/07/26 06:16:10;;;;;;;20.27;18.48;;;19.60;99.90;;;;;;5027783;28;20114;-48
2021/07/26 06:18:36;;;;;;;22.85;20.75;;;19.70;99.90;;;;;;5028237;28;20050;-45
2021/07/26 06:21:06;;;;;;;20.55;18.65;;;19.80;99.90;;;;;;5030360;28;20060;-47
2021/07/26 06:23:33;;;;;;;19.90;18.10;;;20.00;99.90;;;;;;5027628;28;20052;-48
2021/07/26 06:25:59;;;;;;;19.38;17.33;;;20.30;99.90;;;;;;5027841;28;20176;-49
2021/07/26 06:28:26;;;;;;;17.95;16.35;;;20.50;99.90;;;;;;5027283;28;20052;-46
2021/07/26 06:30:52;;;;;;;17.38;15.68;;;20.70;99.90;;;;;;5026467;28;20049;-46
2021/07/26 06:33:21;;;;;;;15.15;13.65;;;21.10;99.90;;;;;;5025217;28;20505;-47
2021/07/26 06:35:47;;;;;;;14.25;12.93;;;21.30;99.90;;;;;;5024890;28;20057;-47
2021/07/26 06:38:14;;;;;;;33.58;30.42;;;21.60;99.90;;;;;;5027841;28;20049;-48
2021/07/26 06:40:44;;;;;;;49.00;43.90;;;21.60;99.90;;;;;;5026557;28;20052;-48
2021/07/26 06:43:11;;;;;;;25.15;22.67;;;21.60;99.90;;;;;;5027077;28;20060;-49
2021/07/26 06:45:37;;;;;;;30.85;27.90;;;21.50;99.90;;;;;;5027896;28;20091;-46
2021/07/26 06:48:04;;;;;;;13.30;12.10;;;21.40;99.90;;;;;;5027206;28;20049;-46
2021/07/26 06:50:30;;;;;;;16.85;14.05;;;21.30;99.90;;;;;;5026415;28;20046;-47
2021/07/26 06:52:56;;;;;;;19.15;16.92;;;21.30;99.90;;;;;;5025801;28;20041;-47
2021/07/26 06:55:23;;;;;;;13.50;12.13;;;21.40;99.90;;;;;;5026957;28;20645;-46
2021/07/26 06:57:50;;;;;;;13.23;11.93;;;21.50;99.90;;;;;;5024493;28;20049;-48
2021/07/26 07:00:19;;;;;;;46.72;42.17;;;21.60;99.90;;;;;;5026297;28;20056;-49
2021/07/26 07:02:51;;;;;;;12.93;11.77;;;22.00;99.90;;;;;;5026260;28;20797;-47
2021/07/26 07:05:17;;;;;;;13.07;11.75;;;22.20;99.90;;;;;;5025581;28;20046;-45
2021/07/26 07:07:44;;;;;;;22.88;20.60;;;22.80;99.90;;;;;;5025052;28;20053;-48
2021/07/26 07:10:13;;;;;;;15.70;14.15;;;23.10;99.90;;;;;;5028590;28;20497;-46
2021/07/26 07:12:42;;;;;;;16.40;14.82;;;23.40;99.90;;;;;;5025091;28;20049;-46
2021/07/26 07:15:09;;;;;;;11.90;10.73;;;23.80;99.90;;;;;;5025602;28;20410;-45
2021/07/26 07:17:35;;;;;;;11.45;10.32;;;23.90;99.90;;;;;;5032160;28;20052;-45
2021/07/26 07:20:04;;;;;;;10.95;9.85;;;23.60;99.90;;;;;;5022502;28;20053;-46
2021/07/26 07:22:38;;;;;;;27.27;24.73;;;23.30;99.90;;;;;;5029658;28;20071;-45
2021/07/26 07:25:05;;;;;;;21.23;19.25;;;23.30;99.90;;;;;;5026488;28;20056;-47
2021/07/26 07:27:31;;;;;;;14.77;13.38;;;23.20;99.90;;;;;;5022685;28;20132;-47
2021/07/26 07:29:59;;;;;;;20.45;18.40;;;23.00;99.90;;;;;;5028112;28;20069;-46
2021/07/26 07:32:32;;;;;;;12.75;11.48;;;23.10;99.90;;;;;;5028967;28;20065;-48
2021/07/26 07:35:01;;;;;;;11.32;10.23;;;23.10;99.90;;;;;;5022369;28;20104;-47
2021/07/26 07:37:30;;;;;;;10.73;9.63;;;23.20;99.90;;;;;;5030148;28;20559;-47
2021/07/26 07:40:01;;;;;;;21.23;19.33;;;23.00;99.90;;;;;;5028163;28;20061;-47
2021/07/26 07:42:33;;;;;;;48.13;43.80;;;23.00;99.90;;;;;;5027506;28;20168;-46
2021/07/26 07:44:59;;;;;;;11.60;10.40;;;22.80;99.90;;;;;;5029104;28;20046;-45
2021/07/26 07:47:28;;;;;;;15.48;11.88;;;22.80;99.90;;;;;;5029410;28;20333;-44
2021/07/26 07:49:55;;;;;;;27.75;25.25;;;22.90;99.90;;;;;;5044488;28;20096;-46
2021/07/26 07:52:21;;;;;;;10.80;9.43;;;22.80;99.90;;;;;;5026372;28;20053;-46
2021/07/26 07:54:48;;;;;;;11.50;9.02;;;22.90;99.90;;;;;;5029588;28;20129;-47
2021/07/26 07:57:16;;;;;;;10.93;9.63;;;23.10;99.90;;;;;;5028718;28;20049;-43
2021/07/26 07:59:44;;;;;;;12.15;9.65;;;23.40;99.90;;;;;;5025672;28;20049;-45
2021/07/26 08:02:12;;;;;;;10.82;9.20;;;23.60;99.90;;;;;;5030275;28;20050;-44
2021/07/26 08:04:41;;;;;;;10.30;9.15;;;24.30;99.90;;;;;;5029504;28;20429;-44
2021/07/26 08:07:07;;;;;;;10.77;9.15;;;24.60;99.90;;;;;;5020594;28;20164;-46
2021/07/26 08:09:33;;;;;;;10.43;9.27;;;24.80;99.90;;;;;;5022422;28;20056;-46
2021/07/26 08:12:00;;;;;;;10.15;8.48;;;25.20;99.90;;;;;;5021873;28;20053;-46
2021/07/26 08:14:28;;;;;;;12.65;9.48;;;24.80;99.90;;;;;;5024491;28;20092;-46
2021/07/26 08:17:03;;;;;;;15.65;14.13;;;24.80;99.90;;;;;;5029917;28;20054;-46
2021/07/26 08:19:34;;;;;;;12.82;8.50;;;25.00;99.90;;;;;;5028412;28;20100;-46
2021/07/26 08:22:01;;;;;;;9.65;8.60;;;25.50;99.90;;;;;;5035840;28;20076;-45
2021/07/26 08:24:27;;;;;;;9.35;8.45;;;25.60;99.90;;;;;;5029162;28;20052;-45
2021/07/26 08:26:56;;;;;;;19.90;18.10;;;25.90;99.90;;;;;;5028661;28;20050;-47
2021/07/26 08:29:25;;;;;;;9.35;8.45;;;25.90;99.90;;;;;;5033766;28;20045;-47
2021/07/26 08:31:51;;;;;;;8.57;7.13;;;26.20;99.90;;;;;;5028024;28;20559;-46
2021/07/26 08:34:20;;;;;;;7.80;6.60;;;26.40;99.90;;;;;;5027669;28;20041;-46
2021/07/26 08:36:46;;;;;;;7.03;6.32;;;26.50;99.90;;;;;;5027478;28;20057;-45
2021/07/26 08:39:12;;;;;;;8.05;6.30;;;26.40;99.90;;;;;;5030270;28;20124;-47
2021/07/26 08:41:41;;;;;;;10.73;8.98;;;26.30;99.90;;;;;;5025013;28;20045;-46
2021/07/26 08:44:07;;;;;;;13.07;11.90;;;26.20;99.90;;;;;;5023567;28;20402;-48
2021/07/26 08:46:36;;;;;;;8.93;7.43;;;26.00;99.90;;;;;;5029160;28;20067;-45
2021/07/26 08:49:02;;;;;;;7.10;6.35;;;26.00;99.90;;;;;;5029501;28;20049;-45
2021/07/26 08:51:33;;;;;;;11.68;10.55;;;26.10;99.90;;;;;;5027803;28;20049;-44
2021/07/26 08:54:01;;;;;;;9.88;7.03;;;26.30;99.90;;;;;;5027854;28;20050;-47
2021/07/26 08:56:28;;;;;;;17.63;15.80;;;26.50;99.20;;;;;;5028964;28;20048;-48
2021/07/26 08:58:54;;;;;;;6.30;5.63;;;26.80;99.90;;;;;;5034617;28;20509;-47
2021/07/26 09:01:21;;;;;;;8.93;6.45;;;26.90;99.90;;;;;;5026878;28;20076;-50
2021/07/26 09:03:51;;;;;;;8.48;6.10;;;27.30;99.90;;;;;;5030492;28;20076;-49
2021/07/26 09:06:17;;;;;;;12.38;11.15;;;27.40;96.50;;;;;;5026285;28;20071;-49
2021/07/26 09:08:44;;;;;;;8.02;7.22;;;27.50;95.40;;;;;;5022799;28;20085;-49
2021/07/26 09:11:10;;;;;;;7.85;4.80;;;27.50;96.40;;;;;;5022651;28;20854;-49
2021/07/26 09:13:39;;;;;;;13.32;11.85;;;27.70;97.00;;;;;;5028038;28;20046;-48
2021/07/26 09:16:26;;;;;;;11.73;10.23;;;27.70;92.90;;;;;;5030703;28;20538;-50
2021/07/26 09:19:00;;;;;;;31.95;29.15;;;27.90;90.00;;;;;;5026315;28;20060;-48
2021/07/26 09:21:50;;;;;;;9.70;7.78;;;27.90;93.90;;;;;;5025684;28;20065;-48
2021/07/26 09:24:25;;;;;;;6.22;5.40;;;27.90;80.50;;;;;;5029297;28;20061;-49
2021/07/26 09:26:52;;;;;;;5.90;4.82;;;28.30;88.50;;;;;;5024479;28;20053;-47
2021/07/26 09:29:27;;;;;;;5.30;4.47;;;28.40;89.80;;;;;;5028051;28;20073;-50
2021/07/26 09:32:05;;;;;;;7.50;6.18;;;28.70;82.80;;;;;;5024719;28;20781;-46
2021/07/26 09:34:36;;;;;;;6.35;4.68;;;28.70;78.80;;;;;;5028509;28;20050;-49
2021/07/26 09:37:22;;;;;;;6.65;4.45;;;29.10;82.60;;;;;;5029108;28;20045;-50
2021/07/26 09:39:48;;;;;;;5.95;4.95;;;29.00;76.60;;;;;;5029599;28;20059;-49
2021/07/26 09:42:27;;;;;;;7.07;4.85;;;29.00;80.90;;;;;;5028435;28;20049;-47
2021/07/26 09:45:13;;;;;;;7.45;5.00;;;29.50;77.10;;;;;;5029027;28;20803;-50
2021/07/26 09:47:43;;;;;;;8.15;7.15;;;29.30;79.10;;;;;;5026344;28;20051;-51
2021/07/26 09:50:15;;;;;;;6.47;5.75;;;29.60;76.50;;;;;;5028224;28;20809;-49
2021/07/26 09:52:41;;;;;;;5.10;4.60;;;29.50;76.00;;;;;;5027811;28;20115;-48
2021/07/26 09:55:08;;;;;;;8.25;5.10;;;29.70;75.20;;;;;;5027915;28;20057;-51
2021/07/26 09:57:36;;;;;;;6.78;4.93;;;29.80;72.70;;;;;;5027307;28;20645;-54
2021/07/26 10:00:06;;;;;;;6.07;4.35;;;29.40;70.60;;;;;;5029433;28;20136;-52
2021/07/26 10:02:36;;;;;;;14.35;13.00;;;29.80;70.80;;;;;;5028240;28;20700;-51
2021/07/26 10:05:05;;;;;;;13.48;12.13;;;29.40;72.30;;;;;;5028426;28;20107;-51
2021/07/26 10:07:32;;;;;;;9.75;8.60;;;28.80;74.00;;;;;;5028468;28;20414;-52
2021/07/26 10:09:59;;;;;;;15.93;14.35;;;29.00;76.70;;;;;;5027760;28;20056;-53
2021/07/26 10:12:31;;;;;;;9.15;7.25;;;29.40;76.20;;;;;;5028388;28;20135;-53
2021/07/26 10:14:59;;;;;;;11.15;10.07;;;29.40;77.40;;;;;;5028128;28;20123;-50
2021/07/26 10:17:25;;;;;;;9.10;8.00;;;29.70;71.70;;;;;;5028254;28;20053;-53
2021/07/26 10:19:51;;;;;;;7.53;5.30;;;29.80;71.30;;;;;;5021905;28;20156;-53
2021/07/26 10:22:24;;;;;;;7.60;5.78;;;30.20;70.90;;;;;;5026641;28;20058;-52
2021/07/26 10:25:12;;;;;;;7.18;5.55;;;30.30;64.90;;;;;;5032485;28;20147;-50
2021/07/26 10:27:39;;;;;;;9.15;5.30;;;30.50;66.60;;;;;;5028157;28;20050;-51
2021/07/26 10:30:06;;;;;;;5.85;4.13;;;29.90;68.00;;;;;;5027338;28;20048;-54
2021/07/26 10:32:33;;;;;;;5.88;4.28;;;30.10;68.60;;;;;;5027952;28;20049;-51
2021/07/26 10:35:01;;;;;;;8.48;7.63;;;29.70;68.40;;;;;;5027327;28;20076;-55
2021/07/26 10:37:39;;;;;;;6.43;4.88;;;29.70;68.10;;;;;;5030635;28;20045;-53
2021/07/26 10:40:25;;;;;;;5.63;5.10;;;29.70;66.60;;;;;;5026454;28;20050;-49
2021/07/26 10:42:52;;;;;;;9.18;8.05;;;29.80;67.40;;;;;;5027689;28;20577;-55
2021/07/26 10:45:32;;;;;;;7.72;4.88;;;29.80;65.50;;;;;;5017750;28;20084;-57
2021/07/26 10:48:20;;;;;;;13.45;12.18;;;30.00;68.00;;;;;;5027626;28;20103;-54
2021/07/26 10:50:47;;;;;;;5.75;5.15;;;29.80;64.60;;;;;;5027946;28;20222;-55
2021/07/26 10:53:32;;;;;;;5.43;4.88;;;29.20;67.60;;;;;;5025281;28;20049;-52
2021/07/26 10:56:11;;;;;;;12.23;11.00;;;29.10;68.70;;;;;;5029569;28;20710;-51
2021/07/26 10:58:42;;;;;;;5.15;3.28;;;29.60;65.10;;;;;;5027621;28;20460;-54
2021/07/26 11:01:21;;;;;;;8.98;7.32;;;29.80;65.50;;;;;;5027624;28;20037;-51
2021/07/26 11:03:52;;;;;;;8.05;7.30;;;29.90;64.10;;;;;;5026943;28;20718;-54
2021/07/26 11:06:36;;;;;;;4.63;2.85;;;30.00;64.90;;;;;;5009315;28;20056;-56
2021/07/26 11:09:20;;;;;;;5.90;3.75;;;29.70;64.90;;;;;;5024333;28;20045;-53
2021/07/26 11:11:52;;;;;;;5.75;2.58;;;29.70;65.50;;;;;;5031565;28;20050;-53
2021/07/26 11:14:20;;;;;;;4.40;2.58;;;29.70;65.00;;;;;;5037313;28;20378;-55
2021/07/26 11:16:58;;;;;;;3.90;2.63;;;29.80;63.60;;;;;;5031714;28;20064;-55
2021/07/26 11:19:55;;;;;;;4.60;3.20;;;29.70;63.90;;;;;;5031688;28;20037;-54
2021/07/26 11:22:27;;;;;;;4.82;2.80;;;29.90;61.50;;;;;;5031286;28;20083;-53
2021/07/26 11:25:10;;;;;;;5.18;3.22;;;29.60;60.00;;;;;;5033470;28;20099;-51
2021/07/26 11:27:38;;;;;;;4.60;2.70;;;30.20;60.80;;;;;;5031108;28;20053;-49
2021/07/26 11:30:10;;;;;;;4.20;3.00;;;29.80;60.20;;;;;;5031224;28;20052;-51
2021/07/26 11:32:41;;;;;;;3.53;2.30;;;30.00;61.20;;;;;;5030133;28;20053;-51
2021/07/26 11:35:10;;;;;;;4.88;2.30;;;30.40;61.10;;;;;;5035218;28;20106;-53
2021/07/26 11:37:39;;;;;;;5.10;3.05;;;30.30;60.50;;;;;;5030555;28;20052;-51
2021/07/26 11:40:07;;;;;;;3.15;2.58;;;30.60;59.80;;;;;;5033433;28;20049;-53
2021/07/26 11:42:40;;;;;;;3.35;2.03;;;30.70;59.50;;;;;;5032474;28;20057;-53
2021/07/26 11:45:11;;;;;;;3.78;2.25;;;30.80;59.20;;;;;;5031154;28;20050;-55
2021/07/26 11:47:42;;;;;;;6.85;2.92;;;30.20;57.90;;;;;;5031101;28;20053;-54
2021/07/26 11:50:20;;;;;;;4.38;2.90;;;29.50;61.10;;;;;;5030296;28;20049;-52
2021/07/26 11:52:53;;;;;;;4.10;2.33;;;29.70;62.20;;;;;;5030688;28;20061;-54
2021/07/26 11:55:21;;;;;;;4.82;3.15;;;29.40;59.60;;;;;;5031577;28;20084;-52
2021/07/26 11:58:07;;;;;;;6.85;6.20;;;29.70;60.10;;;;;;5028327;28;20045;-56
2021/07/26 12:00:43;;;;;;;10.77;9.73;;;29.60;59.30;;;;;;5021533;28;20081;-57
2021/07/26 12:03:10;;;;;;;5.07;3.38;;;29.70;61.70;;;;;;5029995;28;20042;-56
2021/07/26 12:05:37;;;;;;;3.40;1.90;;;30.20;60.70;;;;;;5027459;28;20053;-56
2021/07/26 12:08:16;;;;;;;4.88;3.03;;;30.50;61.90;;;;;;5027975;28;20194;-57
2021/07/26 12:10:44;;;;;;;4.55;4.07;;;30.70;57.80;;;;;;5025505;28;20127;-56
2021/07/26 12:13:12;;;;;;;3.55;2.40;;;30.40;60.30;;;;;;5014224;28;20478;-56
2021/07/26 12:15:39;;;;;;;3.92;2.38;;;30.30;60.80;;;;;;5024133;28;20684;-57
2021/07/26 12:18:07;;;;;;;5.00;3.00;;;30.50;59.80;;;;;;5030921;28;20072;-59
2021/07/26 12:20:36;;;;;;;5.45;2.85;;;30.80;58.10;;;;;;5029780;28;20178;-56
2021/07/26 12:23:20;;;;;;;7.03;6.20;;;30.60;55.70;;;;;;5032932;28;20094;-56
2021/07/26 12:25:54;;;;;;;4.15;2.80;;;30.90;58.60;;;;;;5027993;28;20164;-55
2021/07/26 12:28:40;;;;;;;3.63;1.50;;;31.20;58.20;;;;;;5027619;28;20079;-56
2021/07/26 12:31:35;;;;;;;4.38;3.70;;;30.70;57.20;;;;;;5018646;28;20033;-55
2021/07/26 12:34:18;;;;;;;3.30;2.30;;;30.90;56.00;;;;;;5029044;28;20445;-56
2021/07/26 12:36:45;;;;;;;5.75;5.15;;;31.20;55.60;;;;;;5028337;28;20045;-55
2021/07/26 12:39:15;;;;;;;4.53;2.85;;;30.70;57.80;;;;;;5030362;28;20053;-55
2021/07/26 12:41:45;;;;;;;3.13;1.92;;;30.80;56.60;;;;;;5029884;28;20204;-57
2021/07/26 12:44:42;;;;;;;5.13;3.22;;;30.60;56.30;;;;;;5036671;28;20103;-53
2021/07/26 12:47:24;;;;;;;5.10;2.28;;;31.10;55.10;;;;;;5030436;28;20136;-55
2021/07/26 12:49:54;;;;;;;3.40;2.20;;;31.00;54.80;;;;;;5027569;28;20151;-57
2021/07/26 12:52:20;;;;;;;3.53;2.53;;;30.70;55.40;;;;;;5027135;28;20078;-55
2021/07/26 12:54:50;;;;;;;7.80;6.28;;;30.10;55.70;;;;;;5033530;28;20501;-56
2021/07/26 12:57:16;;;;;;;4.60;3.45;;;29.70;56.90;;;;;;5029202;28;20057;-52
2021/07/26 12:59:42;;;;;;;3.95;2.45;;;29.90;57.30;;;;;;5028576;28;20053;-55